This is the latest recevied weather packets stored in our database for station/object DB0PDF-L4. If no packets are shown the sender has not sent any weather packets the latest 10 day(s).
| Time | Temp. | Humidity | Pressure | Rain* | Wind** | Luminosity | Snow |
|---|---|---|---|---|---|---|---|
| 1777416541 | 12.22° C | 29% | 1018 hPa | - | - | - | - |
| 1777408431 | 15° C | 24% | 1017 hPa | - | - | - | - |
| 1777406629 | 15.56° C | 25% | 1017 hPa | - | - | - | - |
| 1777403024 | 17.78° C | 23% | 1016 hPa | - | - | - | - |
| 1777401222 | 18.89° C | 21% | 1016 hPa | - | - | - | - |
| 1777400321 | 20° C | 21% | 1016 hPa | - | - | - | - |
| 1777390409 | 23.33° C | 16% | 1015 hPa | - | - | - | - |
| 1777385903 | 22.78° C | 16% | 1016 hPa | - | - | - | - |
| 1777383200 | 21.67° C | 17% | 1016 hPa | - | - | - | - |
| 1777382299 | 21.11° C | 17% | 1016 hPa | - | - | - | - |
| 1777375090 | 18.89° C | 19% | 1016 hPa | - | - | - | - |
| 1777373288 | 18.89° C | 20% | 1016 hPa | - | - | - | - |
| 1777372387 | 17.78° C | 20% | 1016 hPa | - | - | - | - |
| 1777371485 | 17.78° C | 21% | 1016 hPa | - | - | - | - |
| 1777370584 | 17.78° C | 20% | 1016 hPa | - | - | - | - |
| 1777369683 | 17.78° C | 20% | 1016 hPa | - | - | - | - |
| 1777368782 | 17.22° C | 21% | 1016 hPa | - | - | - | - |
| 1777367881 | 16.67° C | 21% | 1016 hPa | - | - | - | - |
| 1777365177 | 16.11° C | 24% | 1016 hPa | - | - | - | - |
| 1777364276 | 16.67° C | 25% | 1016 hPa | - | - | - | - |
| 1777363375 | 16.67° C | 25% | 1016 hPa | - | - | - | - |
| 1777362474 | 16.67° C | 26% | 1016 hPa | - | - | - | - |
| 1777361573 | 16.67° C | 26% | 1016 hPa | - | - | - | - |
| 1777360672 | 16.11° C | 27% | 1016 hPa | - | - | - | - |
| 1777358870 | 15.56° C | 29% | 1016 hPa | - | - | - | - |
* Rain since midnight (hover to see other rain measurements)
** Current wind speed in m/s (hover to see current wind gust speed)